Flood From: 24-02-2018 06:00 Until: 25-02-2018 06:00 warning for: Flood Level: Yellow info button

Although rather usual in this region, locally or potentially dangerous phenomena are expected. (such as local winds, summer thunderstorms, rising streams or high waves) Be aware and pay attention to the latest weather updates, especially if you carry out activities exposed to weather or close to a stream or shoreline. 


Meteo18 Weather Cam more information Meteo18 Weather Cam


Thunder radar more information blitzortung!


Rain radar more information rain snow radar


Visit our other weather sites:

Template documentation
and downloads

And another site



Weather Underground History page Text

Daily Summary for September 28, 2017 Units:  Both    English   Metric
« Previous Day
Next Day »
Daily Weekly Monthly Yearly Custom
  High: Low: Average:
Temperature: TemperatureC °F /  -17.8 °C 11.8 °F /  -11.2 °C 16.8 °F /  -8.4 °C
Dew Point: DewpointC °F /  -17.8 °C 11.2 °F /  -11.6 °C 13.9 °F /  -10.1 °C
Humidity: Humidity % 60 % 84 %
Wind Speed: WindSpeedKMH mph /  0 km/h - 1.7 mph /  2.7 km/h
Wind Gust: WindSpeedGustKMH mph /  0 km/h - -
Wind:- - SW
Pressure: PressurehPa in /  0 hPa 1021.9 in /  34601.5 hPa -
Precipitation: 0.0 in /  0 mm    
Historical Graphs
 
 
Tabular Data for September 28, 2017
Time Temperature Dew Point Pressure Wind Wind Speed Wind Gust Humidity Rainfall Rate (Hourly)
TemperatureC °F /  -17.8 °C DewpointC °F /  -17.8 °C PressurehPa in /  0 hPa Calm     Humidity % HourlyPrecipMM in /  0 mm
00:02 14.8 °F /  -9.6 °C 13.3 °F /  -10.4 °C 1021.9 in /  34601.5 hPa Calm   1.6 mph /  2.6 km/h 91 % 0.0 in /  0 mm
00:12 14.7 °F /  -9.6 °C 13.6 °F /  -10.2 °C 1021.9 in /  34601.5 hPa Calm   1.6 mph /  2.6 km/h 93 % 0.0 in /  0 mm
00:17 14.8 °F /  -9.6 °C 13.7 °F /  -10.2 °C 1021.9 in /  34601.5 hPa Calm   1.6 mph /  2.6 km/h 93 % 0.0 in /  0 mm
00:22 14.9 °F /  -9.5 °C 13.8 °F /  -10.1 °C 1021.9 in /  34601.5 hPa Calm     93 % 0.0 in /  0 mm
00:27 15.1 °F /  -9.4 °C 14.0 °F /  -10 °C 1021.9 in /  34601.5 hPa SE 1.6 mph /  2.6 km/h   93 % 0.0 in /  0 mm
00:32 15.3 °F /  -9.3 °C 14.0 °F /  -10 °C 1021.9 in /  34601.5 hPa Calm   3.2 mph /  5.1 km/h 92 % 0.0 in /  0 mm
00:42 15.1 °F /  -9.4 °C 13.6 °F /  -10.2 °C 1021.9 in /  34601.5 hPa Calm   3.2 mph /  5.1 km/h 91 % 0.0 in /  0 mm
00:52 15.0 °F /  -9.4 °C 13.5 °F /  -10.3 °C 1022.2 in /  34611.7 hPa Calm     91 % 0.0 in /  0 mm
00:57 14.7 °F /  -9.6 °C 13.2 °F /  -10.4 °C 1021.9 in /  34601.5 hPa SE 1.6 mph /  2.6 km/h 1.6 mph /  2.6 km/h 91 % 0.0 in /  0 mm
01:02 14.8 °F /  -9.6 °C 13.5 °F /  -10.3 °C 1022.2 in /  34611.7 hPa SE 1.6 mph /  2.6 km/h 1.6 mph /  2.6 km/h 92 % 0.0 in /  0 mm
01:12 14.8 °F /  -9.6 °C 13.5 °F /  -10.3 °C 1022.2 in /  34611.7 hPa SE 1.6 mph /  2.6 km/h 1.6 mph /  2.6 km/h 92 % 0.0 in /  0 mm
01:17 14.8 °F /  -9.6 °C 13.5 °F /  -10.3 °C 1021.9 in /  34601.5 hPa SE 1.6 mph /  2.6 km/h 1.6 mph /  2.6 km/h 92 % 0.0 in /  0 mm
01:22 14.7 °F /  -9.6 °C 13.2 °F /  -10.4 °C 1021.9 in /  34601.5 hPa Calm   1.6 mph /  2.6 km/h 91 % 0.0 in /  0 mm
01:32 14.4 °F /  -9.8 °C 13.1 °F /  -10.5 °C 1022.2 in /  34611.7 hPa WNW 1.6 mph /  2.6 km/h 3.2 mph /  5.1 km/h 92 % 0.0 in /  0 mm
01:42 14.3 °F /  -9.8 °C 13.3 °F /  -10.4 °C 1021.9 in /  34601.5 hPa Calm   3.2 mph /  5.1 km/h 94 % 0.0 in /  0 mm
01:47 14.2 °F /  -9.9 °C 13.1 °F /  -10.5 °C 1022.2 in /  34611.7 hPa WNW 1.6 mph /  2.6 km/h 3.2 mph /  5.1 km/h 93 % 0.0 in /  0 mm
01:52 14.0 °F /  -10 °C 13.0 °F /  -10.6 °C 1022.2 in /  34611.7 hPa WNW 1.6 mph /  2.6 km/h 3.2 mph /  5.1 km/h 94 % 0.0 in /  0 mm
01:57 13.9 °F /  -10.1 °C 12.9 °F /  -10.6 °C 1022.2 in /  34611.7 hPa Calm   3.2 mph /  5.1 km/h 94 % 0.0 in /  0 mm
02:02 13.8 °F /  -10.1 °C 12.9 °F /  -10.6 °C 1022.2 in /  34611.7 hPa Calm   3.2 mph /  5.1 km/h 94 % 0.0 in /  0 mm
02:12 14.2 °F /  -9.9 °C 13.4 °F /  -10.3 °C 1022.2 in /  34611.7 hPa Calm   3.2 mph /  5.1 km/h 95 % 0.0 in /  0 mm
02:17 13.9 °F /  -10.1 °C 12.9 °F /  -10.6 °C 1022.2 in /  34611.7 hPa Calm   1.6 mph /  2.6 km/h 94 % 0.0 in /  0 mm
02:22 13.5 °F /  -10.3 °C 12.6 °F /  -10.8 °C 1022.2 in /  34611.7 hPa Calm   1.6 mph /  2.6 km/h 94 % 0.0 in /  0 mm
02:27 13.4 °F /  -10.3 °C 12.6 °F /  -10.8 °C 1022.2 in /  34611.7 hPa Calm   1.6 mph /  2.6 km/h 95 % 0.0 in /  0 mm
02:32 13.5 °F /  -10.3 °C 12.7 °F /  -10.7 °C 1022.2 in /  34611.7 hPa Calm   1.6 mph /  2.6 km/h 95 % 0.0 in /  0 mm
02:37 13.7 °F /  -10.2 °C 13.1 °F /  -10.5 °C 1022.2 in /  34611.7 hPa Calm   1.6 mph /  2.6 km/h 96 % 0.0 in /  0 mm
02:42 13.7 °F /  -10.2 °C 12.9 °F /  -10.6 °C 1022.2 in /  34611.7 hPa Calm   1.6 mph /  2.6 km/h 95 % 0.0 in /  0 mm
02:47 13.4 °F /  -10.3 °C 12.5 °F /  -10.8 °C 1022.2 in /  34611.7 hPa Calm     94 % 0.0 in /  0 mm
02:52 13.2 °F /  -10.4 °C 12.4 °F /  -10.9 °C 1022.2 in /  34611.7 hPa Calm     95 % 0.0 in /  0 mm
02:57 13.2 °F /  -10.4 °C 12.4 °F /  -10.9 °C 1022.6 in /  34625.2 hPa Calm     95 % 0.0 in /  0 mm
03:02 12.9 °F /  -10.6 °C 12.1 °F /  -11.1 °C 1022.2 in /  34611.7 hPa Calm     95 % 0.0 in /  0 mm
03:12 12.9 °F /  -10.6 °C 12.3 °F /  -10.9 °C 1022.6 in /  34625.2 hPa Calm   1.6 mph /  2.6 km/h 96 % 0.0 in /  0 mm
03:17 13.0 °F /  -10.6 °C 12.4 °F /  -10.9 °C 1022.2 in /  34611.7 hPa Calm     96 % 0.0 in /  0 mm
03:22 12.9 °F /  -10.6 °C 12.3 °F /  -10.9 °C 1022.2 in /  34611.7 hPa Calm     96 % 0.0 in /  0 mm
03:27 13.0 °F /  -10.6 °C 12.4 °F /  -10.9 °C 1022.2 in /  34611.7 hPa Calm     96 % 0.0 in /  0 mm
03:32 12.8 °F /  -10.7 °C 12.0 °F /  -11.1 °C 1022.6 in /  34625.2 hPa Calm     95 % 0.0 in /  0 mm
03:42 12.7 °F /  -10.7 °C 12.1 °F /  -11.1 °C 1022.2 in /  34611.7 hPa Calm     96 % 0.0 in /  0 mm
03:47 12.8 °F /  -10.7 °C 12.2 °F /  -11 °C 1022.2 in /  34611.7 hPa Calm     96 % 0.0 in /  0 mm
03:52 12.7 °F /  -10.7 °C 12.1 °F /  -11.1 °C 1022.2 in /  34611.7 hPa Calm     96 % 0.0 in /  0 mm
03:57 12.4 °F /  -10.9 °C 11.6 °F /  -11.3 °C 1022.2 in /  34611.7 hPa Calm   1.6 mph /  2.6 km/h 95 % 0.0 in /  0 mm
04:02 12.3 °F /  -10.9 °C 11.7 °F /  -11.3 °C 1022.2 in /  34611.7 hPa Calm   1.6 mph /  2.6 km/h 96 % 0.0 in /  0 mm
04:12 12.5 °F /  -10.8 °C 12.0 °F /  -11.1 °C 1022.6 in /  34625.2 hPa Calm   1.6 mph /  2.6 km/h 97 % 0.0 in /  0 mm
04:17 12.3 °F /  -10.9 °C 11.7 °F /  -11.3 °C 1022.6 in /  34625.2 hPa Calm     96 % 0.0 in /  0 mm
04:22 12.2 °F /  -11 °C 11.6 °F /  -11.3 °C 1022.6 in /  34625.2 hPa Calm     96 % 0.0 in /  0 mm
04:27 12.3 °F /  -10.9 °C 11.7 °F /  -11.3 °C 1022.6 in /  34625.2 hPa Calm     96 % 0.0 in /  0 mm
04:32 12.5 °F /  -10.8 °C 12.0 °F /  -11.1 °C 1022.6 in /  34625.2 hPa Calm     97 % 0.0 in /  0 mm
04:37 12.7 °F /  -10.7 °C 12.2 °F /  -11 °C 1022.9 in /  34635.4 hPa Calm     97 % 0.0 in /  0 mm
04:42 12.7 °F /  -10.7 °C 12.2 °F /  -11 °C 1022.9 in /  34635.4 hPa Calm     97 % 0.0 in /  0 mm
04:47 12.9 °F /  -10.6 °C 12.4 °F /  -10.9 °C 1022.9 in /  34635.4 hPa Calm     97 % 0.0 in /  0 mm
04:52 13.0 °F /  -10.6 °C 12.5 °F /  -10.8 °C 1022.9 in /  34635.4 hPa Calm     97 % 0.0 in /  0 mm
05:02 13.0 °F /  -10.6 °C 12.5 °F /  -10.8 °C 1022.9 in /  34635.4 hPa Calm     97 % 0.0 in /  0 mm
05:12 12.9 °F /  -10.6 °C 12.3 °F /  -10.9 °C 1022.9 in /  34635.4 hPa Calm     96 % 0.0 in /  0 mm
05:17 12.8 °F /  -10.7 °C 12.2 °F /  -11 °C 1022.9 in /  34635.4 hPa Calm     96 % 0.0 in /  0 mm
05:22 12.7 °F /  -10.7 °C 12.1 °F /  -11.1 °C 1022.9 in /  34635.4 hPa Calm     96 % 0.0 in /  0 mm
05:27 12.4 °F /  -10.9 °C 11.8 °F /  -11.2 °C 1022.9 in /  34635.4 hPa Calm     96 % 0.0 in /  0 mm
05:32 12.1 °F /  -11.1 °C 11.3 °F /  -11.5 °C 1022.9 in /  34635.4 hPa Calm     95 % 0.0 in /  0 mm
05:42 11.8 °F /  -11.2 °C 11.2 °F /  -11.6 °C 1022.9 in /  34635.4 hPa Calm     96 % 0.0 in /  0 mm
05:47 11.9 °F /  -11.2 °C 11.4 °F /  -11.4 °C 1022.9 in /  34635.4 hPa Calm     97 % 0.0 in /  0 mm
05:52 12.2 °F /  -11 °C 11.7 °F /  -11.3 °C 1022.9 in /  34635.4 hPa Calm     97 % 0.0 in /  0 mm
05:57 12.3 °F /  -10.9 °C 11.8 °F /  -11.2 °C 1022.9 in /  34635.4 hPa Calm     97 % 0.0 in /  0 mm
06:02 12.4 °F /  -10.9 °C 11.9 °F /  -11.2 °C 1022.9 in /  34635.4 hPa Calm     97 % 0.0 in /  0 mm
06:12 12.6 °F /  -10.8 °C 12.1 °F /  -11.1 °C 1023.2 in /  34645.6 hPa Calm     97 % 0.0 in /  0 mm
06:17 12.6 °F /  -10.8 °C 12.1 °F /  -11.1 °C 1023.2 in /  34645.6 hPa Calm     97 % 0.0 in /  0 mm
06:22 12.6 °F /  -10.8 °C 12.1 °F /  -11.1 °C 1023.2 in /  34645.6 hPa Calm     97 % 0.0 in /  0 mm
06:32 12.6 °F /  -10.8 °C 12.1 °F /  -11.1 °C 1023.2 in /  34645.6 hPa Calm     97 % 0.0 in /  0 mm
06:37 12.6 °F /  -10.8 °C 12.1 °F /  -11.1 °C 1023.2 in /  34645.6 hPa Calm     97 % 0.0 in /  0 mm
06:42 12.6 °F /  -10.8 °C 12.1 °F /  -11.1 °C 1023.2 in /  34645.6 hPa Calm     97 % 0.0 in /  0 mm
06:52 12.4 °F /  -10.9 °C 11.9 °F /  -11.2 °C 1023.2 in /  34645.6 hPa Calm     97 % 0.0 in /  0 mm
06:57 12.4 °F /  -10.9 °C 11.9 °F /  -11.2 °C 1023.2 in /  34645.6 hPa Calm     97 % 0.0 in /  0 mm
07:02 12.4 °F /  -10.9 °C 11.9 °F /  -11.2 °C 1023.2 in /  34645.6 hPa Calm     97 % 0.0 in /  0 mm
07:12 12.4 °F /  -10.9 °C 11.9 °F /  -11.2 °C 1023.2 in /  34645.6 hPa Calm     97 % 0.0 in /  0 mm
07:17 12.4 °F /  -10.9 °C 11.9 °F /  -11.2 °C 1023.2 in /  34645.6 hPa Calm     97 % 0.0 in /  0 mm
07:22 12.3 °F /  -10.9 °C 11.8 °F /  -11.2 °C 1023.2 in /  34645.6 hPa Calm     97 % 0.0 in /  0 mm
07:32 12.4 °F /  -10.9 °C 11.9 °F /  -11.2 °C 1023.2 in /  34645.6 hPa Calm     97 % 0.0 in /  0 mm
07:42 12.4 °F /  -10.9 °C 11.9 °F /  -11.2 °C 1023.6 in /  34659.1 hPa NNE 3.2 mph /  5.1 km/h   97 % 0.0 in /  0 mm
07:47 12.3 °F /  -10.9 °C 11.8 °F /  -11.2 °C 1023.6 in /  34659.1 hPa NNE 1.6 mph /  2.6 km/h 3.2 mph /  5.1 km/h 97 % 0.0 in /  0 mm
07:52 12.4 °F /  -10.9 °C 11.9 °F /  -11.2 °C 1023.6 in /  34659.1 hPa Calm   3.2 mph /  5.1 km/h 97 % 0.0 in /  0 mm
08:02 12.3 °F /  -10.9 °C 11.8 °F /  -11.2 °C 1023.6 in /  34659.1 hPa Calm   3.2 mph /  5.1 km/h 97 % 0.0 in /  0 mm
08:12 12.4 °F /  -10.9 °C 11.9 °F /  -11.2 °C 1023.6 in /  34659.1 hPa Calm   1.6 mph /  2.6 km/h 97 % 0.0 in /  0 mm
08:17 12.3 °F /  -10.9 °C 11.8 °F /  -11.2 °C 1023.6 in /  34659.1 hPa Calm   1.6 mph /  2.6 km/h 97 % 0.0 in /  0 mm
08:22 12.4 °F /  -10.9 °C 11.9 °F /  -11.2 °C 1023.6 in /  34659.1 hPa Calm   1.6 mph /  2.6 km/h 97 % 0.0 in /  0 mm
08:32 12.4 °F /  -10.9 °C 11.9 °F /  -11.2 °C 1023.9 in /  34669.3 hPa Calm   1.6 mph /  2.6 km/h 97 % 0.0 in /  0 mm
08:37 12.4 °F /  -10.9 °C 11.9 °F /  -11.2 °C 1023.9 in /  34669.3 hPa Calm     97 % 0.0 in /  0 mm
08:42 12.5 °F /  -10.8 °C 12.0 °F /  -11.1 °C 1023.9 in /  34669.3 hPa Calm     97 % 0.0 in /  0 mm
08:47 12.6 °F /  -10.8 °C 12.1 °F /  -11.1 °C 1023.9 in /  34669.3 hPa Calm     97 % 0.0 in /  0 mm
08:52 12.7 °F /  -10.7 °C 12.2 °F /  -11 °C 1023.9 in /  34669.3 hPa Calm     97 % 0.0 in /  0 mm
09:02 12.7 °F /  -10.7 °C 12.2 °F /  -11 °C 1023.9 in /  34669.3 hPa Calm   1.6 mph /  2.6 km/h 97 % 0.0 in /  0 mm
09:12 12.8 °F /  -10.7 °C 12.3 °F /  -10.9 °C 1023.9 in /  34669.3 hPa Calm   1.6 mph /  2.6 km/h 97 % 0.0 in /  0 mm
09:17 12.9 °F /  -10.6 °C 12.4 °F /  -10.9 °C 1024.3 in /  34682.8 hPa Calm   1.6 mph /  2.6 km/h 97 % 0.0 in /  0 mm
09:22 13.1 °F /  -10.5 °C 12.6 °F /  -10.8 °C 1024.3 in /  34682.8 hPa Calm   1.6 mph /  2.6 km/h 97 % 0.0 in /  0 mm
09:32 13.3 °F /  -10.4 °C 12.8 °F /  -10.7 °C 1024.3 in /  34682.8 hPa Calm   1.6 mph /  2.6 km/h 97 % 0.0 in /  0 mm
09:37 13.3 °F /  -10.4 °C 12.8 °F /  -10.7 °C 1024.3 in /  34682.8 hPa Calm     97 % 0.0 in /  0 mm
09:42 13.6 °F /  -10.2 °C 13.1 °F /  -10.5 °C 1024.3 in /  34682.8 hPa Calm     97 % 0.0 in /  0 mm
09:52 13.9 °F /  -10.1 °C 13.4 °F /  -10.3 °C 1024.3 in /  34682.8 hPa Calm   1.6 mph /  2.6 km/h 97 % 0.0 in /  0 mm
10:02 14.3 °F /  -9.8 °C 13.8 °F /  -10.1 °C 1024.3 in /  34682.8 hPa SW 1.6 mph /  2.6 km/h 1.6 mph /  2.6 km/h 97 % 0.0 in /  0 mm
10:07 14.6 °F /  -9.7 °C 14.1 °F /  -9.9 °C 1024.3 in /  34682.8 hPa Calm   3.2 mph /  5.1 km/h 97 % 0.0 in /  0 mm
10:12 14.6 °F /  -9.7 °C 14.0 °F /  -10 °C 1024.6 in /  34693 hPa SW 1.6 mph /  2.6 km/h 3.2 mph /  5.1 km/h 96 % 0.0 in /  0 mm
10:17 14.8 °F /  -9.6 °C 14.2 °F /  -9.9 °C 1024.3 in /  34682.8 hPa Calm   6.4 mph /  10.3 km/h 96 % 0.0 in /  0 mm
10:22 14.9 °F /  -9.5 °C 14.1 °F /  -9.9 °C 1024.3 in /  34682.8 hPa SW 1.6 mph /  2.6 km/h 6.4 mph /  10.3 km/h 95 % 0.0 in /  0 mm
10:27 15.2 °F /  -9.3 °C 14.4 °F /  -9.8 °C 1024.6 in /  34693 hPa SW 1.6 mph /  2.6 km/h 6.4 mph /  10.3 km/h 95 % 0.0 in /  0 mm
10:32 15.6 °F /  -9.1 °C 14.6 °F /  -9.7 °C 1024.3 in /  34682.8 hPa SSW 3.2 mph /  5.1 km/h 6.4 mph /  10.3 km/h 94 % 0.0 in /  0 mm
10:42 15.9 °F /  -8.9 °C 14.3 °F /  -9.8 °C 1024.6 in /  34693 hPa SSW 1.6 mph /  2.6 km/h 4.8 mph /  7.7 km/h 90 % 0.0 in /  0 mm
10:52 16.3 °F /  -8.7 °C 14.3 °F /  -9.8 °C 1024.3 in /  34682.8 hPa SSW 1.6 mph /  2.6 km/h 6.4 mph /  10.3 km/h 88 % 0.0 in /  0 mm
11:02 16.8 °F /  -8.4 °C 14.6 °F /  -9.7 °C 1024.3 in /  34682.8 hPa SW 1.6 mph /  2.6 km/h 6.4 mph /  10.3 km/h 87 % 0.0 in /  0 mm
11:12 17.1 °F /  -8.3 °C 14.6 °F /  -9.7 °C 1024.6 in /  34693 hPa SSW 4.8 mph /  7.7 km/h 6.4 mph /  10.3 km/h 85 % 0.0 in /  0 mm
11:17 17.2 °F /  -8.2 °C 14.5 °F /  -9.7 °C 1024.6 in /  34693 hPa SE 1.6 mph /  2.6 km/h 6.4 mph /  10.3 km/h 84 % 0.0 in /  0 mm
11:22 17.4 °F /  -8.1 °C 14.5 °F /  -9.7 °C 1024.6 in /  34693 hPa SW 8.0 mph /  12.9 km/h 8.0 mph /  12.9 km/h 83 % 0.0 in /  0 mm
11:32 18.1 °F /  -7.7 °C 15.0 °F /  -9.4 °C 1024.3 in /  34682.8 hPa SSW 1.6 mph /  2.6 km/h 9.7 mph /  15.6 km/h 82 % 0.0 in /  0 mm
11:42 18.4 °F /  -7.6 °C 14.1 °F /  -9.9 °C 1024.3 in /  34682.8 hPa WSW 9.7 mph /  15.6 km/h 9.7 mph /  15.6 km/h 76 % 0.0 in /  0 mm
11:47 18.4 °F /  -7.6 °C 14.1 °F /  -9.9 °C 1024.3 in /  34682.8 hPa South 6.4 mph /  10.3 km/h 12.9 mph /  20.8 km/h 76 % 0.0 in /  0 mm
11:52 18.6 °F /  -7.4 °C 14.5 °F /  -9.7 °C 1024.3 in /  34682.8 hPa SSW 6.4 mph /  10.3 km/h 12.9 mph /  20.8 km/h 77 % 0.0 in /  0 mm
11:57 18.7 °F /  -7.4 °C 14.4 °F /  -9.8 °C 1024.3 in /  34682.8 hPa SSW 4.8 mph /  7.7 km/h 12.9 mph /  20.8 km/h 76 % 0.0 in /  0 mm
12:02 18.9 °F /  -7.3 °C 14.6 °F /  -9.7 °C 1024.3 in /  34682.8 hPa SW 11.3 mph /  18.2 km/h 12.9 mph /  20.8 km/h 76 % 0.0 in /  0 mm
12:12 19.2 °F /  -7.1 °C 14.5 °F /  -9.7 °C 1024.3 in /  34682.8 hPa SW 8.0 mph /  12.9 km/h 14.5 mph /  23.3 km/h 74 % 0.0 in /  0 mm
12:17 19.1 °F /  -7.2 °C 14.1 °F /  -9.9 °C 1024.3 in /  34682.8 hPa SW 11.3 mph /  18.2 km/h 14.5 mph /  23.3 km/h 73 % 0.0 in /  0 mm
12:22 19.2 °F /  -7.1 °C 14.9 °F /  -9.5 °C 1024.3 in /  34682.8 hPa WSW 4.8 mph /  7.7 km/h 14.5 mph /  23.3 km/h 76 % 0.0 in /  0 mm
12:32 19.5 °F /  -6.9 °C 14.7 °F /  -9.6 °C 1024.3 in /  34682.8 hPa WSW 8.0 mph /  12.9 km/h 12.9 mph /  20.8 km/h 74 % 0.0 in /  0 mm
12:42 19.8 °F /  -6.8 °C 14.8 °F /  -9.6 °C 1024.3 in /  34682.8 hPa West 4.8 mph /  7.7 km/h 12.9 mph /  20.8 km/h 73 % 0.0 in /  0 mm
12:52 20.0 °F /  -6.7 °C 15.2 °F /  -9.3 °C 1024.3 in /  34682.8 hPa WSW 1.6 mph /  2.6 km/h 12.9 mph /  20.8 km/h 74 % 0.0 in /  0 mm
12:57 20.1 °F /  -6.6 °C 14.9 °F /  -9.5 °C 1024.3 in /  34682.8 hPa Calm   9.7 mph /  15.6 km/h 72 % 0.0 in /  0 mm
13:02 20.3 °F /  -6.5 °C 15.1 °F /  -9.4 °C 1024.3 in /  34682.8 hPa WNW 4.8 mph /  7.7 km/h 9.7 mph /  15.6 km/h 72 % 0.0 in /  0 mm
13:07 20.6 °F /  -6.3 °C 15.4 °F /  -9.2 °C 1024.3 in /  34682.8 hPa SSW 6.4 mph /  10.3 km/h 9.7 mph /  15.6 km/h 72 % 0.0 in /  0 mm
13:12 20.7 °F /  -6.3 °C 15.3 °F /  -9.3 °C 1024.3 in /  34682.8 hPa SW 3.2 mph /  5.1 km/h 12.9 mph /  20.8 km/h 71 % 0.0 in /  0 mm
13:17 20.9 °F /  -6.2 °C 15.0 °F /  -9.4 °C 1024.3 in /  34682.8 hPa SW 8.0 mph /  12.9 km/h 12.9 mph /  20.8 km/h 69 % 0.0 in /  0 mm
13:22 20.9 °F /  -6.2 °C 14.8 °F /  -9.6 °C 1024.3 in /  34682.8 hPa SW 6.4 mph /  10.3 km/h 14.5 mph /  23.3 km/h 68 % 0.0 in /  0 mm
13:32 20.9 °F /  -6.2 °C 15.2 °F /  -9.3 °C 1023.9 in /  34669.3 hPa SSW 1.6 mph /  2.6 km/h 14.5 mph /  23.3 km/h 70 % 0.0 in /  0 mm
13:37 20.9 °F /  -6.2 °C 14.8 °F /  -9.6 °C 1023.9 in /  34669.3 hPa SW 8.0 mph /  12.9 km/h 14.5 mph /  23.3 km/h 68 % 0.0 in /  0 mm
13:42 20.8 °F /  -6.2 °C 14.9 °F /  -9.5 °C 1023.9 in /  34669.3 hPa SSW 6.4 mph /  10.3 km/h 14.5 mph /  23.3 km/h 69 % 0.0 in /  0 mm
13:52 20.8 °F /  -6.2 °C 15.3 °F /  -9.3 °C 1023.9 in /  34669.3 hPa SW 3.2 mph /  5.1 km/h 14.5 mph /  23.3 km/h 71 % 0.0 in /  0 mm
14:02 21.2 °F /  -6 °C 15.3 °F /  -9.3 °C 1023.9 in /  34669.3 hPa SSE 4.8 mph /  7.7 km/h 12.9 mph /  20.8 km/h 69 % 0.0 in /  0 mm
14:12 21.4 °F /  -5.9 °C 15.5 °F /  -9.2 °C 1023.9 in /  34669.3 hPa SSW 6.4 mph /  10.3 km/h 12.9 mph /  20.8 km/h 69 % 0.0 in /  0 mm
14:22 21.2 °F /  -6 °C 15.1 °F /  -9.4 °C 1023.9 in /  34669.3 hPa SW 4.8 mph /  7.7 km/h 12.9 mph /  20.8 km/h 68 % 0.0 in /  0 mm
14:32 21.4 °F /  -5.9 °C 15.5 °F /  -9.2 °C 1023.9 in /  34669.3 hPa SW 6.4 mph /  10.3 km/h 12.9 mph /  20.8 km/h 69 % 0.0 in /  0 mm
14:42 21.6 °F /  -5.8 °C 15.2 °F /  -9.3 °C 1023.9 in /  34669.3 hPa SW 3.2 mph /  5.1 km/h 16.1 mph /  25.9 km/h 67 % 0.0 in /  0 mm
14:47 21.7 °F /  -5.7 °C 15.3 °F /  -9.3 °C 1023.9 in /  34669.3 hPa SSW 6.4 mph /  10.3 km/h 16.1 mph /  25.9 km/h 67 % 0.0 in /  0 mm
14:52 21.9 °F /  -5.6 °C 15.5 °F /  -9.2 °C 1023.9 in /  34669.3 hPa SSW 3.2 mph /  5.1 km/h 14.5 mph /  23.3 km/h 67 % 0.0 in /  0 mm
14:57 22.1 °F /  -5.5 °C 15.9 °F /  -8.9 °C 1023.9 in /  34669.3 hPa WSW 4.8 mph /  7.7 km/h 14.5 mph /  23.3 km/h 68 % 0.0 in /  0 mm
15:02 22.4 °F /  -5.3 °C 15.7 °F /  -9.1 °C 1023.9 in /  34669.3 hPa South 4.8 mph /  7.7 km/h 12.9 mph /  20.8 km/h 66 % 0.0 in /  0 mm
15:12 22.7 °F /  -5.2 °C 16.3 °F /  -8.7 °C 1023.9 in /  34669.3 hPa SSW 6.4 mph /  10.3 km/h 12.9 mph /  20.8 km/h 67 % 0.0 in /  0 mm
15:17 22.7 °F /  -5.2 °C 15.5 °F /  -9.2 °C 1023.9 in /  34669.3 hPa WSW 11.3 mph /  18.2 km/h 12.9 mph /  20.8 km/h 64 % 0.0 in /  0 mm
15:22 22.6 °F /  -5.2 °C 15.2 °F /  -9.3 °C 1023.9 in /  34669.3 hPa SSW 6.4 mph /  10.3 km/h 16.1 mph /  25.9 km/h 63 % 0.0 in /  0 mm
15:27 22.6 °F /  -5.2 °C 14.9 °F /  -9.5 °C 1023.9 in /  34669.3 hPa SW 4.8 mph /  7.7 km/h 16.1 mph /  25.9 km/h 62 % 0.0 in /  0 mm
15:32 22.4 °F /  -5.3 °C 15.0 °F /  -9.4 °C 1023.9 in /  34669.3 hPa SSW 11.3 mph /  18.2 km/h 16.1 mph /  25.9 km/h 63 % 0.0 in /  0 mm
15:42 22.7 °F /  -5.2 °C 15.5 °F /  -9.2 °C 1023.9 in /  34669.3 hPa South 1.6 mph /  2.6 km/h 14.5 mph /  23.3 km/h 64 % 0.0 in /  0 mm
15:52 22.9 °F /  -5.1 °C 15.7 °F /  -9.1 °C 1023.6 in /  34659.1 hPa SW 4.8 mph /  7.7 km/h 14.5 mph /  23.3 km/h 64 % 0.0 in /  0 mm
15:57 22.9 °F /  -5.1 °C 15.5 °F /  -9.2 °C 1023.6 in /  34659.1 hPa South 4.8 mph /  7.7 km/h 9.7 mph /  15.6 km/h 63 % 0.0 in /  0 mm
16:02 22.8 °F /  -5.1 °C 15.4 °F /  -9.2 °C 1023.6 in /  34659.1 hPa SW 3.2 mph /  5.1 km/h 9.7 mph /  15.6 km/h 63 % 0.0 in /  0 mm
16:07 22.9 °F /  -5.1 °C 15.7 °F /  -9.1 °C 1023.6 in /  34659.1 hPa SSE 6.4 mph /  10.3 km/h 12.9 mph /  20.8 km/h 64 % 0.0 in /  0 mm
16:12 22.9 °F /  -5.1 °C 15.7 °F /  -9.1 °C 1023.6 in /  34659.1 hPa SSW 8.0 mph /  12.9 km/h 12.9 mph /  20.8 km/h 64 % 0.0 in /  0 mm
16:17 22.9 °F /  -5.1 °C 15.5 °F /  -9.2 °C 1023.6 in /  34659.1 hPa Calm   12.9 mph /  20.8 km/h 63 % 0.0 in /  0 mm
16:22 22.9 °F /  -5.1 °C 15.5 °F /  -9.2 °C 1023.6 in /  34659.1 hPa WSW 3.2 mph /  5.1 km/h 12.9 mph /  20.8 km/h 63 % 0.0 in /  0 mm
16:27 22.8 °F /  -5.1 °C 15.4 °F /  -9.2 °C 1023.6 in /  34659.1 hPa WSW 6.4 mph /  10.3 km/h 12.9 mph /  20.8 km/h 63 % 0.0 in /  0 mm
16:32 22.9 °F /  -5.1 °C 15.5 °F /  -9.2 °C 1023.6 in /  34659.1 hPa SE 3.2 mph /  5.1 km/h 12.9 mph /  20.8 km/h 63 % 0.0 in /  0 mm
16:37 23.1 °F /  -4.9 °C 15.7 °F /  -9.1 °C 1023.6 in /  34659.1 hPa SSW 12.9 mph /  20.8 km/h 16.1 mph /  25.9 km/h 63 % 0.0 in /  0 mm
16:42 23.1 °F /  -4.9 °C 15.7 °F /  -9.1 °C 1023.2 in /  34645.6 hPa WSW 4.8 mph /  7.7 km/h 16.1 mph /  25.9 km/h 63 % 0.0 in /  0 mm
16:47 23.2 °F /  -4.9 °C 15.3 °F /  -9.3 °C 1023.2 in /  34645.6 hPa SW 9.7 mph /  15.6 km/h 16.1 mph /  25.9 km/h 61 % 0.0 in /  0 mm
17:02 22.8 °F /  -5.1 °C 15.4 °F /  -9.2 °C 1023.2 in /  34645.6 hPa West 4.8 mph /  7.7 km/h 16.1 mph /  25.9 km/h 63 % 0.0 in /  0 mm
17:12 23.0 °F /  -5 °C 15.8 °F /  -9 °C 1023.6 in /  34659.1 hPa SW 1.6 mph /  2.6 km/h 16.1 mph /  25.9 km/h 64 % 0.0 in /  0 mm
17:17 23.1 °F /  -4.9 °C 15.7 °F /  -9.1 °C 1023.2 in /  34645.6 hPa WSW 1.6 mph /  2.6 km/h 12.9 mph /  20.8 km/h 63 % 0.0 in /  0 mm
17:22 23.3 °F /  -4.8 °C 15.9 °F /  -8.9 °C 1023.2 in /  34645.6 hPa WSW 4.8 mph /  7.7 km/h 8.0 mph /  12.9 km/h 63 % 0.0 in /  0 mm
17:27 23.3 °F /  -4.8 °C 15.9 °F /  -8.9 °C 1023.2 in /  34645.6 hPa SW 6.4 mph /  10.3 km/h 6.4 mph /  10.3 km/h 63 % 0.0 in /  0 mm
17:32 23.2 °F /  -4.9 °C 15.5 °F /  -9.2 °C 1023.2 in /  34645.6 hPa SW 3.2 mph /  5.1 km/h 9.7 mph /  15.6 km/h 62 % 0.0 in /  0 mm
17:42 23.5 °F /  -4.7 °C 15.5 °F /  -9.2 °C 1023.6 in /  34659.1 hPa SSW 1.6 mph /  2.6 km/h 11.3 mph /  18.2 km/h 61 % 0.0 in /  0 mm
17:47 23.5 °F /  -4.7 °C 15.8 °F /  -9 °C 1023.6 in /  34659.1 hPa Calm   9.7 mph /  15.6 km/h 62 % 0.0 in /  0 mm
17:57 23.8 °F /  -4.6 °C 15.8 °F /  -9 °C 1023.6 in /  34659.1 hPa WSW 4.8 mph /  7.7 km/h 6.4 mph /  10.3 km/h 61 % 0.0 in /  0 mm
18:02 23.7 °F /  -4.6 °C 15.7 °F /  -9.1 °C 1023.6 in /  34659.1 hPa SSW 1.6 mph /  2.6 km/h 6.4 mph /  10.3 km/h 61 % 0.0 in /  0 mm
18:07 23.7 °F /  -4.6 °C 15.5 °F /  -9.2 °C 1023.6 in /  34659.1 hPa SSW 1.6 mph /  2.6 km/h 6.4 mph /  10.3 km/h 60 % 0.0 in /  0 mm
18:17 23.3 °F /  -4.8 °C 15.4 °F /  -9.2 °C 1023.6 in /  34659.1 hPa SW 3.2 mph /  5.1 km/h 8.0 mph /  12.9 km/h 61 % 0.0 in /  0 mm
18:22 23.1 °F /  -4.9 °C 15.2 °F /  -9.3 °C 1023.6 in /  34659.1 hPa WSW 4.8 mph /  7.7 km/h 8.0 mph /  12.9 km/h 61 % 0.0 in /  0 mm
18:27 22.9 °F /  -5.1 °C 15.7 °F /  -9.1 °C 1023.6 in /  34659.1 hPa SW 1.6 mph /  2.6 km/h 8.0 mph /  12.9 km/h 64 % 0.0 in /  0 mm
18:32 22.8 °F /  -5.1 °C 15.9 °F /  -8.9 °C 1023.2 in /  34645.6 hPa Calm   6.4 mph /  10.3 km/h 65 % 0.0 in /  0 mm
18:37 22.6 °F /  -5.2 °C 15.9 °F /  -8.9 °C 1023.2 in /  34645.6 hPa WSW 1.6 mph /  2.6 km/h 6.4 mph /  10.3 km/h 66 % 0.0 in /  0 mm
18:42 22.4 °F /  -5.3 °C 15.5 °F /  -9.2 °C 1023.2 in /  34645.6 hPa SW 3.2 mph /  5.1 km/h 3.2 mph /  5.1 km/h 65 % 0.0 in /  0 mm
18:52 22.1 °F /  -5.5 °C 15.7 °F /  -9.1 °C 1023.6 in /  34659.1 hPa Calm   4.8 mph /  7.7 km/h 67 % 0.0 in /  0 mm
18:57 21.9 °F /  -5.6 °C 15.7 °F /  -9.1 °C 1023.2 in /  34645.6 hPa Calm   3.2 mph /  5.1 km/h 68 % 0.0 in /  0 mm
19:02 21.7 °F /  -5.7 °C 15.5 °F /  -9.2 °C 1023.6 in /  34659.1 hPa Calm   3.2 mph /  5.1 km/h 68 % 0.0 in /  0 mm
19:12 21.3 °F /  -5.9 °C 15.8 °F /  -9 °C 1023.6 in /  34659.1 hPa Calm   1.6 mph /  2.6 km/h 71 % 0.0 in /  0 mm
19:17 21.1 °F /  -6.1 °C 15.6 °F /  -9.1 °C 1023.6 in /  34659.1 hPa Calm     71 % 0.0 in /  0 mm
19:22 20.8 °F /  -6.2 °C 15.8 °F /  -9 °C 1023.6 in /  34659.1 hPa Calm     73 % 0.0 in /  0 mm
19:32 20.1 °F /  -6.6 °C 15.7 °F /  -9.1 °C 1023.6 in /  34659.1 hPa WNW 1.6 mph /  2.6 km/h   76 % 0.0 in /  0 mm
19:37 19.7 °F /  -6.8 °C 15.3 °F /  -9.3 °C 1023.6 in /  34659.1 hPa Calm   1.6 mph /  2.6 km/h 76 % 0.0 in /  0 mm
19:42 19.6 °F /  -6.9 °C 15.5 °F /  -9.2 °C 1023.6 in /  34659.1 hPa Calm   1.6 mph /  2.6 km/h 77 % 0.0 in /  0 mm
19:47 19.3 °F /  -7.1 °C 15.4 °F /  -9.2 °C 1023.6 in /  34659.1 hPa WNW 1.6 mph /  2.6 km/h 1.6 mph /  2.6 km/h 78 % 0.0 in /  0 mm
19:52 19.2 °F /  -7.1 °C 15.7 °F /  -9.1 °C 1023.6 in /  34659.1 hPa Calm   1.6 mph /  2.6 km/h 80 % 0.0 in /  0 mm
19:57 19.1 °F /  -7.2 °C 15.8 °F /  -9 °C 1023.6 in /  34659.1 hPa Calm   1.6 mph /  2.6 km/h 81 % 0.0 in /  0 mm
20:02 19.0 °F /  -7.2 °C 15.7 °F /  -9.1 °C 1023.6 in /  34659.1 hPa Calm   1.6 mph /  2.6 km/h 81 % 0.0 in /  0 mm
20:12 18.9 °F /  -7.3 °C 15.6 °F /  -9.1 °C 1023.6 in /  34659.1 hPa Calm   1.6 mph /  2.6 km/h 81 % 0.0 in /  0 mm
20:17 18.8 °F /  -7.3 °C 15.7 °F /  -9.1 °C 1023.6 in /  34659.1 hPa Calm   1.6 mph /  2.6 km/h 82 % 0.0 in /  0 mm
20:22 18.6 °F /  -7.4 °C 15.8 °F /  -9 °C 1023.6 in /  34659.1 hPa Calm   1.6 mph /  2.6 km/h 84 % 0.0 in /  0 mm
20:27 18.4 °F /  -7.6 °C 15.6 °F /  -9.1 °C 1023.6 in /  34659.1 hPa Calm   1.6 mph /  2.6 km/h 84 % 0.0 in /  0 mm
20:32 18.2 °F /  -7.7 °C 15.5 °F /  -9.2 °C 1023.6 in /  34659.1 hPa Calm   1.6 mph /  2.6 km/h 84 % 0.0 in /  0 mm
20:42 18.2 °F /  -7.7 °C 15.6 °F /  -9.1 °C 1023.6 in /  34659.1 hPa Calm   1.6 mph /  2.6 km/h 85 % 0.0 in /  0 mm
20:52 18.0 °F /  -7.8 °C 15.4 °F /  -9.2 °C 1023.9 in /  34669.3 hPa North 1.6 mph /  2.6 km/h 3.2 mph /  5.1 km/h 85 % 0.0 in /  0 mm
20:57 17.9 °F /  -7.8 °C 15.5 °F /  -9.2 °C 1023.9 in /  34669.3 hPa Calm   3.2 mph /  5.1 km/h 86 % 0.0 in /  0 mm
21:02 17.8 °F /  -7.9 °C 15.4 °F /  -9.2 °C 1023.9 in /  34669.3 hPa Calm   3.2 mph /  5.1 km/h 86 % 0.0 in /  0 mm
21:12 17.6 °F /  -8 °C 15.4 °F /  -9.2 °C 1023.9 in /  34669.3 hPa Calm   1.6 mph /  2.6 km/h 87 % 0.0 in /  0 mm
21:17 17.6 °F /  -8 °C 15.2 °F /  -9.3 °C 1023.9 in /  34669.3 hPa Calm   1.6 mph /  2.6 km/h 86 % 0.0 in /  0 mm
21:22 17.7 °F /  -7.9 °C 15.3 °F /  -9.3 °C 1023.9 in /  34669.3 hPa Calm   1.6 mph /  2.6 km/h 86 % 0.0 in /  0 mm
21:32 17.3 °F /  -8.2 °C 15.1 °F /  -9.4 °C 1023.9 in /  34669.3 hPa Calm   3.2 mph /  5.1 km/h 87 % 0.0 in /  0 mm
21:37 17.2 °F /  -8.2 °C 15.0 °F /  -9.4 °C 1023.9 in /  34669.3 hPa Calm   3.2 mph /  5.1 km/h 87 % 0.0 in /  0 mm
21:42 17.2 °F /  -8.2 °C 15.2 °F /  -9.3 °C 1023.9 in /  34669.3 hPa NNW 1.6 mph /  2.6 km/h 3.2 mph /  5.1 km/h 88 % 0.0 in /  0 mm
21:47 17.2 °F /  -8.2 °C 15.2 °F /  -9.3 °C 1023.9 in /  34669.3 hPa Calm   1.6 mph /  2.6 km/h 88 % 0.0 in /  0 mm
21:52 17.1 °F /  -8.3 °C 15.1 °F /  -9.4 °C 1023.9 in /  34669.3 hPa Calm   1.6 mph /  2.6 km/h 88 % 0.0 in /  0 mm
22:02 16.8 °F /  -8.4 °C 15.0 °F /  -9.4 °C 1023.9 in /  34669.3 hPa Calm   1.6 mph /  2.6 km/h 89 % 0.0 in /  0 mm
22:12 16.8 °F /  -8.4 °C 15.1 °F /  -9.4 °C 1023.9 in /  34669.3 hPa North 1.6 mph /  2.6 km/h 1.6 mph /  2.6 km/h 90 % 0.0 in /  0 mm
22:17 16.7 °F /  -8.5 °C 15.1 °F /  -9.4 °C 1023.9 in /  34669.3 hPa Calm   1.6 mph /  2.6 km/h 90 % 0.0 in /  0 mm
22:22 16.6 °F /  -8.6 °C 15.0 °F /  -9.4 °C 1023.9 in /  34669.3 hPa Calm   3.2 mph /  5.1 km/h 90 % 0.0 in /  0 mm
22:32 16.5 °F /  -8.6 °C 15.0 °F /  -9.4 °C 1023.9 in /  34669.3 hPa North 1.6 mph /  2.6 km/h 3.2 mph /  5.1 km/h 91 % 0.0 in /  0 mm
22:37 16.5 °F /  -8.6 °C 14.9 °F /  -9.5 °C 1023.9 in /  34669.3 hPa Calm   3.2 mph /  5.1 km/h 90 % 0.0 in /  0 mm
22:42 16.4 °F /  -8.7 °C 14.8 °F /  -9.6 °C 1023.9 in /  34669.3 hPa Calm   3.2 mph /  5.1 km/h 90 % 0.0 in /  0 mm
22:47 16.2 °F /  -8.8 °C 14.6 °F /  -9.7 °C 1023.9 in /  34669.3 hPa Calm   3.2 mph /  5.1 km/h 90 % 0.0 in /  0 mm
22:52 16.1 °F /  -8.8 °C 14.6 °F /  -9.7 °C 1023.9 in /  34669.3 hPa Calm   1.6 mph /  2.6 km/h 91 % 0.0 in /  0 mm
22:57 16.1 °F /  -8.8 °C 14.6 °F /  -9.7 °C 1023.9 in /  34669.3 hPa Calm     91 % 0.0 in /  0 mm
23:02 15.9 °F /  -8.9 °C 14.4 °F /  -9.8 °C 1023.9 in /  34669.3 hPa Calm     91 % 0.0 in /  0 mm
23:07 15.7 °F /  -9.1 °C 14.2 °F /  -9.9 °C 1023.9 in /  34669.3 hPa Calm     91 % 0.0 in /  0 mm
23:12 15.6 °F /  -9.1 °C 14.3 °F /  -9.8 °C 1023.9 in /  34669.3 hPa Calm     92 % 0.0 in /  0 mm
23:17 15.6 °F /  -9.1 °C 14.5 °F /  -9.7 °C 1023.9 in /  34669.3 hPa WNW 1.6 mph /  2.6 km/h 1.6 mph /  2.6 km/h 93 % 0.0 in /  0 mm
23:22 15.6 °F /  -9.1 °C 14.5 °F /  -9.7 °C 1023.9 in /  34669.3 hPa NW 1.6 mph /  2.6 km/h 1.6 mph /  2.6 km/h 93 % 0.0 in /  0 mm
23:27 15.7 °F /  -9.1 °C 14.6 °F /  -9.7 °C 1023.9 in /  34669.3 hPa North 1.6 mph /  2.6 km/h 1.6 mph /  2.6 km/h 93 % 0.0 in /  0 mm
23:32 15.7 °F /  -9.1 °C 14.6 °F /  -9.7 °C 1023.9 in /  34669.3 hPa Calm   3.2 mph /  5.1 km/h 93 % 0.0 in /  0 mm
23:37 15.6 °F /  -9.1 °C 14.5 °F /  -9.7 °C 1023.9 in /  34669.3 hPa NNE 1.6 mph /  2.6 km/h 3.2 mph /  5.1 km/h 93 % 0.0 in /  0 mm
23:42 15.5 °F /  -9.2 °C 14.4 °F /  -9.8 °C 1023.9 in /  34669.3 hPa North 1.6 mph /  2.6 km/h 3.2 mph /  5.1 km/h 93 % 0.0 in /  0 mm
23:52 15.3 °F /  -9.3 °C 14.2 °F /  -9.9 °C 1023.6 in /  34659.1 hPa Calm   3.2 mph /  5.1 km/h 93 % 0.0 in /  0 mm
23:57 15.3 °F /  -9.3 °C 14.2 °F /  -9.9 °C 1023.6 in /  34659.1 hPa Calm   3.2 mph /  5.1 km/h 93 % 0.0 in /  0 mm
Meteo18
Compliments of Weather Underground - 4 mb

Script developed by  Jim McMurry - jmcmurry@mwt.net Adapted for the template by  Wim van der Kuil - Leuven-Template.eu

You find our weather info also at:

European Weather Network

Weather Underground

Equipment we use:

Weather-station
Davis Vue

Weather-program
Meteobridge

Weather-server
Raspberry PI 2 B+

Provider
1 and 1

Davis Vue

Meteobridge

Raspberry PI 2 B+

1 and 1